CheckWX is a tool to help pilots better visualize weather data.  It is not intended as a substitute for an official pre-flight weather briefing.

21:49:29 UTC

OJAI TAF
Queen Alia International Airport
Amman, Jordan
TAF OJAI 291652Z 2918/3024 26008KT 5000 HZ FEW020 SCT030 TEMPO 2918/3006 VRB02KT 2000 BR PROB30 3000/3008 0500 FG

Jan-29@
18:00 UTC

Jan-29 @ 18:00 UTC

Jan-31@
00:00 UTC

Jan-31 @ 00:00 UTC

TAF OJAI 291652Z 2918/3024 26008KT 5000 HZ FEW020 SCT030
Wind
  • 260° at 8 KTS
Conditions
Haze
Cloud Levels
  • Few at 2,000' AGL
  • Scattered at 3,000' AGL

Jan-29@
18:00 UTC

Jan-29 @ 18:00 UTC

Jan-30@
06:00 UTC

Jan-30 @ 06:00 UTC

TEMPO 2918/3006 VRB02KT 2000 BR

Temporary

Temporary Changes expected for less than half the time period

Wind
  • Variable at 2 KTS
Conditions
Mist

Jan-30@
00:00 UTC

Jan-30 @ 00:00 UTC

Jan-30@
08:00 UTC

Jan-30 @ 08:00 UTC

PROB30 3000/3008 0500 FG

Probable - 30% Likelihood

Probable - 30% Likelihood during this time.

Conditions
Fog